Time;durP1;ratioP1;P1;durP2;ratioP2;P2;SDS_P1;SDS_P2;PMS_P1;PMS_P2;Temp;Humidity;BMP_temperature;BMP_pressure;BME280_temperature;BME280_humidity;BME280_pressure;Samples;Min_cycle;Max_cycle;Signal;HPM_P1;HPM_P2
2021/04/07 00:01:51;;;;;;;6.35;4.47;;;;;;;2.48;69.14;99760.44;5102511;28;20497;-63
2021/04/07 00:04:17;;;;;;;6.80;4.95;;;;;;;2.60;68.48;99767.56;5086500;28;20210;-63
2021/04/07 00:06:44;;;;;;;5.60;4.13;;;;;;;2.45;69.19;99765.94;5085336;28;20237;-63
2021/04/07 00:09:11;;;;;;;6.90;4.68;;;;;;;2.80;68.16;99765.38;5103557;28;20216;-63
2021/04/07 00:11:37;;;;;;;5.60;4.60;;;;;;;2.73;67.94;99764.94;5103245;28;20245;-64
2021/04/07 00:14:05;;;;;;;8.88;4.63;;;;;;;2.60;68.24;99758.78;5084281;28;20255;-66
2021/04/07 00:16:32;;;;;;;9.10;5.30;;;;;;;2.18;69.18;99765.94;5083410;28;20241;-63
2021/04/07 00:18:59;;;;;;;7.00;4.63;;;;;;;2.21;68.75;99763.94;5084328;28;20476;-62
2021/04/07 00:21:25;;;;;;;7.28;5.20;;;;;;;2.10;68.86;99765.56;5083332;28;20233;-64
2021/04/07 00:23:51;;;;;;;10.05;6.18;;;;;;;2.19;68.39;99768.47;5102210;28;20197;-64
2021/04/07 00:26:17;;;;;;;16.15;6.32;;;;;;;2.11;68.61;99773.38;5095802;28;20237;-63
2021/04/07 00:28:44;;;;;;;13.45;5.93;;;;;;;2.29;68.36;99773.97;5083332;28;20376;-64
2021/04/07 00:31:10;;;;;;;12.00;5.15;;;;;;;2.17;68.67;99770.38;5088676;28;20240;-66
2021/04/07 00:33:37;;;;;;;11.27;4.90;;;;;;;2.39;68.21;99777.72;5103501;28;20204;-63
2021/04/07 00:36:04;;;;;;;10.05;4.68;;;;;;;2.45;68.28;99777.31;5098825;28;20233;-62
2021/04/07 00:38:30;;;;;;;10.15;4.32;;;;;;;2.44;68.10;99770.34;5082972;28;20241;-63
2021/04/07 00:40:56;;;;;;;8.50;4.20;;;;;;;2.31;68.40;99780.03;5084270;28;20236;-66
2021/04/07 00:43:22;;;;;;;6.18;3.67;;;;;;;2.47;67.73;99779.03;5084166;28;20202;-63
2021/04/07 00:45:49;;;;;;;11.02;3.97;;;;;;;2.32;68.13;99792.25;5084348;28;20241;-65
2021/04/07 00:48:15;;;;;;;9.68;2.97;;;;;;;2.09;68.62;99782.34;5082942;28;20213;-62
2021/04/07 00:50:42;;;;;;;6.95;3.65;;;;;;;2.12;68.51;99769.81;5088575;28;20228;-62
2021/04/07 00:53:09;;;;;;;11.85;3.60;;;;;;;2.48;67.34;99783.34;5104047;28;20192;-63
2021/04/07 00:55:37;;;;;;;12.05;4.90;;;;;;;2.10;68.18;99782.25;5101354;28;20236;-63
2021/04/07 00:58:04;;;;;;;6.88;2.85;;;;;;;2.11;68.67;99791.00;5103374;28;20265;-63
2021/04/07 01:00:31;;;;;;;5.35;3.05;;;;;;;1.84;68.93;99787.38;5094437;28;20623;-63
2021/04/07 01:02:59;;;;;;;12.75;3.65;;;;;;;1.82;69.26;99778.75;5090183;28;20185;-63
2021/04/07 01:05:26;;;;;;;4.13;3.50;;;;;;;1.75;69.08;99780.03;5099118;28;20241;-65
2021/04/07 01:07:54;;;;;;;8.43;2.90;;;;;;;1.96;68.79;99780.50;5102413;28;20209;-64
2021/04/07 01:10:21;;;;;;;5.75;2.80;;;;;;;1.80;69.13;99788.50;5096696;28;20234;-62
2021/04/07 01:12:47;;;;;;;8.63;3.38;;;;;;;1.94;68.73;99776.25;5083603;28;20198;-61
2021/04/07 01:15:14;;;;;;;9.43;3.40;;;;;;;1.91;69.11;99777.31;5085998;28;20196;-62
2021/04/07 01:17:41;;;;;;;11.63;3.20;;;;;;;2.06;68.49;99788.66;5102261;28;20228;-62
2021/04/07 01:20:09;;;;;;;15.60;3.80;;;;;;;2.21;68.00;99787.69;5100771;28;20206;-61
2021/04/07 01:22:36;;;;;;;6.10;3.25;;;;;;;2.29;67.74;99786.34;5063045;28;20245;-61
2021/04/07 01:25:05;;;;;;;9.38;3.20;;;;;;;1.83;69.04;99796.22;5085025;28;20216;-61
2021/04/07 01:27:32;;;;;;;6.28;3.30;;;;;;;2.21;68.00;99789.47;5084960;28;20225;-61
2021/04/07 01:29:59;;;;;;;8.23;3.30;;;;;;;2.30;67.35;99788.88;5083993;28;20194;-61
2021/04/07 01:32:25;;;;;;;16.08;3.60;;;;;;;2.33;67.37;99788.69;5083068;28;20233;-61
2021/04/07 01:34:51;;;;;;;6.88;3.10;;;;;;;2.19;67.81;99800.13;5080679;28;20205;-61
2021/04/07 01:37:17;;;;;;;6.50;2.90;;;;;;;2.53;66.86;99803.19;5081530;28;20260;-61
2021/04/07 01:39:43;;;;;;;8.25;3.45;;;;;;;2.13;67.89;99807.56;5097937;28;20213;-61
2021/04/07 01:42:11;;;;;;;9.18;3.40;;;;;;;2.25;67.70;99817.34;5082171;28;20241;-61
2021/04/07 01:44:39;;;;;;;6.95;2.88;;;;;;;2.41;67.55;99806.63;5098942;28;20201;-61
2021/04/07 01:47:06;;;;;;;4.80;2.90;;;;;;;2.10;68.38;99811.25;5089164;28;20267;-61
2021/04/07 01:49:33;;;;;;;6.82;3.05;;;;;;;1.76;68.63;99807.25;5100815;28;20201;-61
2021/04/07 01:52:00;;;;;;;7.80;3.20;;;;;;;1.77;69.52;99809.81;5091617;28;20237;-61
2021/04/07 01:54:26;;;;;;;6.28;3.05;;;;;;;1.84;69.08;99802.34;5082507;28;20197;-61
2021/04/07 01:56:54;;;;;;;4.95;2.97;;;;;;;2.00;68.35;99795.16;5081876;28;20229;-61
2021/04/07 01:59:22;;;;;;;7.38;3.20;;;;;;;2.14;68.14;99796.94;5083346;28;20226;-61
2021/04/07 02:01:48;;;;;;;10.60;3.50;;;;;;;1.77;69.33;99795.75;5096437;28;20236;-61
2021/04/07 02:04:15;;;;;;;8.55;3.28;;;;;;;1.72;69.20;99803.09;5101856;28;20205;-61
2021/04/07 02:06:41;;;;;;;9.05;3.42;;;;;;;1.92;68.81;99801.88;5099292;28;20277;-62
2021/04/07 02:09:08;;;;;;;2.55;2.35;;;;;;;1.57;69.77;99794.38;5101046;28;20209;-61
2021/04/07 02:11:34;;;;;;;8.30;3.15;;;;;;;1.93;68.51;99793.88;5100044;28;20639;-61
2021/04/07 02:14:00;;;;;;;6.30;3.08;;;;;;;1.96;68.52;99793.69;5102356;28;20243;-61
2021/04/07 02:16:27;;;;;;;11.73;3.50;;;;;;;2.01;68.29;99796.00;5099120;28;20228;-61
2021/04/07 02:18:53;;;;;;;4.35;3.00;;;;;;;2.17;67.89;99798.50;5096625;28;20591;-61
2021/04/07 02:21:20;;;;;;;17.25;3.53;;;;;;;1.81;69.21;99802.56;5081958;28;20236;-61
2021/04/07 02:23:46;;;;;;;5.50;3.60;;;;;;;1.99;68.44;99793.47;5082343;28;20194;-61
2021/04/07 02:26:12;;;;;;;6.18;3.10;;;;;;;2.16;68.02;99804.75;5082355;28;20233;-61
2021/04/07 02:28:38;;;;;;;9.20;3.75;;;;;;;2.18;68.00;99803.69;5081679;28;20213;-61
2021/04/07 02:31:05;;;;;;;8.07;3.63;;;;;;;2.40;67.50;99812.88;5097465;28;20962;-61
2021/04/07 02:33:32;;;;;;;9.38;3.45;;;;;;;1.95;68.60;99809.59;5101968;28;20193;-61
2021/04/07 02:35:58;;;;;;;6.20;2.90;;;;;;;1.86;68.88;99819.75;5099528;28;20630;-62
2021/04/07 02:38:24;;;;;;;7.88;3.28;;;;;;;1.85;68.75;99815.41;5100820;28;20236;-61
2021/04/07 02:40:50;;;;;;;8.07;3.05;;;;;;;1.99;68.58;99824.28;5088556;28;20714;-61
2021/04/07 02:43:16;;;;;;;8.50;2.90;;;;;;;1.87;68.78;99816.19;5081758;28;20216;-60
2021/04/07 02:45:43;;;;;;;13.68;3.80;;;;;;;1.94;68.68;99823.72;5091778;28;20252;-60
2021/04/07 02:48:09;;;;;;;8.15;3.10;;;;;;;2.04;68.49;99822.19;5092616;28;20201;-61
2021/04/07 02:50:36;;;;;;;8.18;3.38;;;;;;;2.23;67.77;99817.44;5080647;28;20248;-63
2021/04/07 02:53:02;;;;;;;11.45;3.88;;;;;;;2.14;68.11;99810.13;5081457;28;20190;-61
2021/04/07 02:55:29;;;;;;;8.48;4.00;;;;;;;1.95;68.46;99814.88;5101070;28;20326;-61
2021/04/07 02:57:55;;;;;;;11.48;3.50;;;;;;;1.75;69.08;99814.28;5086100;28;20694;-61
2021/04/07 03:00:22;;;;;;;13.02;3.97;;;;;;;1.75;69.09;99818.72;5081212;28;20477;-61
2021/04/07 03:02:48;;;;;;;6.50;3.22;;;;;;;1.84;69.06;99823.41;5087871;28;20194;-61
2021/04/07 03:05:14;;;;;;;5.85;3.05;;;;;;;1.56;70.13;99814.59;5080161;28;20245;-61
2021/04/07 03:07:42;;;;;;;8.73;3.80;;;;;;;1.64;70.06;99816.75;5091538;28;20238;-61
2021/04/07 03:10:09;;;;;;;7.63;3.53;;;;;;;1.79;69.52;99815.81;5092775;28;20233;-61
2021/04/07 03:12:36;;;;;;;5.65;2.97;;;;;;;1.71;69.76;99815.44;5081706;28;20194;-61
2021/04/07 03:15:02;;;;;;;5.43;3.17;;;;;;;1.51;70.11;99821.91;5082532;28;20193;-62
2021/04/07 03:17:28;;;;;;;15.65;3.55;;;;;;;1.52;70.66;99821.00;5079993;28;20275;-61
2021/04/07 03:19:55;;;;;;;6.03;3.33;;;;;;;1.54;70.35;99810.38;5080522;28;20202;-62
2021/04/07 03:22:21;;;;;;;8.90;2.78;;;;;;;1.49;69.95;99814.13;5081733;28;20229;-61
2021/04/07 03:24:48;;;;;;;6.65;3.00;;;;;;;1.73;69.64;99818.00;5083923;28;20205;-61
2021/04/07 03:27:14;;;;;;;11.95;3.70;;;;;;;1.79;69.84;99822.84;5100459;28;20278;-61
2021/04/07 03:29:40;;;;;;;11.38;3.97;;;;;;;1.73;69.58;99820.63;5091937;28;20209;-61
2021/04/07 03:32:07;;;;;;;10.05;3.85;;;;;;;1.64;69.85;99824.66;5080538;28;20230;-61
2021/04/07 03:34:33;;;;;;;9.98;4.10;;;;;;;1.70;69.85;99816.38;5098274;28;21080;-61
2021/04/07 03:36:59;;;;;;;7.03;3.45;;;;;;;1.88;69.25;99830.22;5080253;28;20239;-61
2021/04/07 03:39:25;;;;;;;10.48;3.65;;;;;;;1.90;68.97;99830.97;5086860;28;20221;-61
2021/04/07 03:41:52;;;;;;;10.85;3.45;;;;;;;1.84;68.72;99834.84;5100521;28;20248;-61
2021/04/07 03:44:22;;;;;;;6.85;3.35;;;;;;;2.11;68.21;99841.94;5093661;28;20202;-61
2021/04/07 03:46:48;;;;;;;19.17;6.15;;;;;;;1.67;69.21;99830.59;5082107;28;20260;-61
2021/04/07 03:49:14;;;;;;;12.27;3.80;;;;;;;1.94;68.78;99836.88;5097014;28;20673;-61
2021/04/07 03:51:40;;;;;;;14.43;3.55;;;;;;;1.67;69.63;99835.03;5095295;28;20230;-61
2021/04/07 03:54:06;;;;;;;7.65;3.20;;;;;;;1.73;69.47;99841.69;5087220;28;20205;-61
2021/04/07 03:56:33;;;;;;;7.70;2.83;;;;;;;1.37;70.42;99835.97;5100013;28;20221;-61
2021/04/07 03:59:00;;;;;;;7.70;3.42;;;;;;;1.75;69.62;99835.38;5101011;28;20224;-60
2021/04/07 04:01:26;;;;;;;11.55;3.78;;;;;;;1.89;69.17;99831.88;5100545;28;20247;-61
2021/04/07 04:03:52;;;;;;;10.82;3.80;;;;;;;1.53;70.41;99829.72;5088642;28;20434;-61
2021/04/07 04:06:18;;;;;;;11.02;4.53;;;;;;;1.40;70.74;99833.13;5080348;28;20241;-61
2021/04/07 04:08:44;;;;;;;4.53;3.10;;;;;;;1.56;70.19;99827.75;5100055;28;20208;-63
2021/04/07 04:11:11;;;;;;;5.63;3.30;;;;;;;1.56;70.17;99833.03;5098969;28;20251;-62
2021/04/07 04:13:37;;;;;;;7.35;3.65;;;;;;;1.79;69.56;99833.41;5104941;28;20234;-62
2021/04/07 04:16:04;;;;;;;5.63;4.57;;;;;;;1.85;69.88;99828.59;5094273;28;20225;-61
2021/04/07 04:18:31;;;;;;;7.78;3.92;;;;;;;2.13;69.22;99832.16;5081921;28;20222;-61
2021/04/07 04:20:57;;;;;;;10.57;3.83;;;;;;;2.15;68.54;99834.69;5087661;28;20301;-61
2021/04/07 04:23:23;;;;;;;13.77;4.05;;;;;;;2.04;69.38;99838.84;5102897;28;20220;-61
2021/04/07 04:25:49;;;;;;;4.50;3.47;;;;;;;1.90;69.25;99848.56;5102381;28;20266;-61
2021/04/07 04:28:16;;;;;;;6.60;3.53;;;;;;;1.71;70.37;99836.53;5092651;28;20236;-61
2021/04/07 04:30:42;;;;;;;4.65;3.55;;;;;;;1.59;70.37;99840.75;5099809;28;20232;-61
2021/04/07 04:33:09;;;;;;;10.05;3.70;;;;;;;2.00;69.19;99840.00;5102315;28;20201;-61
2021/04/07 04:35:35;;;;;;;8.75;3.53;;;;;;;1.75;69.71;99839.81;5091278;28;20233;-61
2021/04/07 04:38:01;;;;;;;8.05;4.07;;;;;;;1.71;70.26;99823.34;5082594;28;20221;-62
2021/04/07 04:40:28;;;;;;;5.50;3.97;;;;;;;1.94;69.08;99823.72;5088744;28;20221;-61
2021/04/07 04:42:54;;;;;;;8.00;3.90;;;;;;;2.30;68.49;99832.88;5101900;28;20189;-61
2021/04/07 04:45:20;;;;;;;12.25;4.45;;;;;;;1.62;69.78;99822.13;5097862;28;20207;-61
2021/04/07 04:47:46;;;;;;;9.32;4.05;;;;;;;2.08;69.06;99834.22;5102085;28;20201;-61
2021/04/07 04:50:13;;;;;;;9.27;4.32;;;;;;;1.98;69.54;99838.38;5086855;28;20205;-61
2021/04/07 04:52:40;;;;;;;10.18;4.30;;;;;;;1.89;69.68;99831.88;5082585;28;20283;-61
2021/04/07 04:55:08;;;;;;;5.93;3.95;;;;;;;1.89;69.35;99829.25;5076417;28;20208;-61
2021/04/07 04:57:34;;;;;;;4.00;3.38;;;;;;;1.99;69.37;99838.28;5081475;28;20258;-61
2021/04/07 05:00:00;;;;;;;9.82;4.20;;;;;;;1.88;69.36;99835.50;5082564;28;20218;-61
2021/04/07 05:02:27;;;;;;;7.85;3.55;;;;;;;1.99;69.53;99838.28;5082558;28;20229;-61
2021/04/07 05:04:53;;;;;;;4.55;3.45;;;;;;;1.82;69.66;99834.09;5075628;28;20239;-61
2021/04/07 05:07:20;;;;;;;7.32;3.92;;;;;;;2.03;69.30;99845.09;5066543;28;20242;-61
2021/04/07 05:09:46;;;;;;;5.15;3.88;;;;;;;2.01;69.20;99838.19;5062399;28;20241;-61
2021/04/07 05:12:13;;;;;;;9.65;4.47;;;;;;;2.06;69.12;99836.97;5081102;28;20233;-62
2021/04/07 05:14:39;;;;;;;8.35;4.35;;;;;;;2.08;68.47;99839.50;5081996;28;20733;-62
2021/04/07 05:17:05;;;;;;;5.82;3.90;;;;;;;2.04;69.01;99838.84;5082098;28;20256;-62
2021/04/07 05:19:31;;;;;;;6.53;3.85;;;;;;;2.18;68.85;99843.25;5092191;28;20233;-62
2021/04/07 05:21:58;;;;;;;9.77;3.80;;;;;;;2.34;68.07;99843.13;5097240;28;20228;-62
2021/04/07 05:24:25;;;;;;;7.13;4.33;;;;;;;2.29;68.19;99841.72;5102359;28;20193;-61
2021/04/07 05:26:51;;;;;;;9.20;4.10;;;;;;;2.40;67.85;99845.38;5089046;28;20480;-62
2021/04/07 05:29:17;;;;;;;8.77;4.20;;;;;;;2.45;68.40;99847.72;5081918;28;20634;-61
2021/04/07 05:31:45;;;;;;;9.80;4.50;;;;;;;2.44;68.15;99849.50;5088007;28;20233;-62
2021/04/07 05:34:11;;;;;;;5.43;3.85;;;;;;;2.42;67.99;99855.84;5066944;28;20454;-61
2021/04/07 05:36:38;;;;;;;11.77;5.28;;;;;;;2.29;69.05;99847.84;5081947;28;20237;-61
2021/04/07 05:39:05;;;;;;;8.07;4.17;;;;;;;2.14;69.31;99854.94;5082371;28;20222;-62
2021/04/07 05:41:32;;;;;;;13.13;4.80;;;;;;;2.38;68.76;99849.06;5084125;28;20479;-62
2021/04/07 05:43:58;;;;;;;9.27;4.45;;;;;;;2.52;68.69;99856.94;5101368;28;20198;-61
2021/04/07 05:46:24;;;;;;;8.40;4.50;;;;;;;2.64;67.87;99853.50;5092279;28;20292;-62
2021/04/07 05:48:51;;;;;;;7.72;4.28;;;;;;;2.27;69.03;99855.00;5081973;28;20796;-58
2021/04/07 05:51:17;;;;;;;8.82;4.43;;;;;;;2.41;68.82;99855.00;5080620;28;20233;-61
2021/04/07 05:53:43;;;;;;;7.32;4.53;;;;;;;2.63;68.44;99853.59;5080223;28;20225;-63
2021/04/07 05:56:09;;;;;;;7.53;4.40;;;;;;;2.63;68.40;99858.88;5062718;28;21042;-62
2021/04/07 05:58:36;;;;;;;5.70;3.67;;;;;;;2.62;67.89;99855.41;5067065;28;20229;-63
2021/04/07 06:01:03;;;;;;;9.68;4.88;;;;;;;2.67;68.99;99860.34;5080168;28;20733;-63
2021/04/07 06:03:29;;;;;;;5.77;4.60;;;;;;;2.66;68.11;99857.81;5077813;28;20288;-63
2021/04/07 06:05:55;;;;;;;5.23;4.17;;;;;;;2.77;67.62;99855.34;5067803;28;20480;-62
2021/04/07 06:08:21;;;;;;;7.75;4.82;;;;;;;2.55;68.38;99859.38;5067130;28;20444;-63
2021/04/07 06:10:49;;;;;;;6.20;4.23;;;;;;;2.55;68.58;99855.88;5078957;28;20298;-63
2021/04/07 06:13:17;;;;;;;12.18;4.53;;;;;;;2.56;68.50;99857.59;5073556;28;20456;-62
2021/04/07 06:15:44;;;;;;;11.00;4.40;;;;;;;2.64;68.05;99863.22;5079969;28;20271;-62
2021/04/07 06:18:13;;;;;;;8.50;4.30;;;;;;;2.28;69.38;99863.78;5088084;28;20487;-61
2021/04/07 06:20:40;;;;;;;6.63;3.95;;;;;;;2.34;69.32;99858.09;5098582;28;20466;-60
2021/04/07 06:23:07;;;;;;;8.88;5.00;;;;;;;2.81;68.26;99865.59;5074715;28;20201;-60
2021/04/07 06:25:34;;;;;;;10.07;5.97;;;;;;;2.51;68.02;99847.31;5068230;28;20233;-61
2021/04/07 06:28:03;;;;;;;5.05;3.88;;;;;;;2.53;68.18;99853.34;5078241;28;20460;-59
2021/04/07 06:30:43;;;;;;;8.75;4.55;;;;;;;2.95;67.52;99858.53;5079611;28;20653;-61
2021/04/07 06:33:15;;;;;;;5.88;4.60;;;;;;;2.83;67.84;99852.31;5087841;28;20248;-62
2021/04/07 06:35:45;;;;;;;6.55;4.03;;;;;;;2.61;68.20;99853.69;5086189;28;20714;-61
2021/04/07 06:38:11;;;;;;;8.88;4.55;;;;;;;2.52;69.37;99851.66;5079135;28;20287;-62
2021/04/07 06:40:38;;;;;;;11.75;4.65;;;;;;;3.27;67.15;99856.41;5077884;28;20278;-63
2021/04/07 06:43:05;;;;;;;6.45;4.47;;;;;;;3.86;65.57;99852.41;5080331;28;20205;-61
2021/04/07 06:45:33;;;;;;;7.63;4.33;;;;;;;3.17;68.47;99858.81;5079827;28;20655;-63
2021/04/07 06:48:00;;;;;;;9.03;4.90;;;;;;;3.46;68.28;99863.09;5080695;28;21020;-61
2021/04/07 06:50:28;;;;;;;13.15;7.13;;;;;;;3.42;67.63;99865.09;5072237;28;20472;-63
2021/04/07 06:52:57;;;;;;;10.30;8.07;;;;;;;3.42;67.95;99857.16;5062769;28;20198;-63
2021/04/07 06:55:24;;;;;;;8.50;6.93;;;;;;;4.19;65.84;99856.25;5060216;28;20479;-62
2021/04/07 06:57:50;;;;;;;8.27;6.43;;;;;;;3.75;66.86;99869.03;5070741;28;20506;-64
2021/04/07 07:00:17;;;;;;;11.50;7.50;;;;;;;3.36;68.27;99853.13;5060030;28;20429;-61
2021/04/07 07:02:44;;;;;;;12.57;8.50;;;;;;;3.61;67.99;99864.69;5078993;28;20968;-63
2021/04/07 07:05:12;;;;;;;13.63;9.27;;;;;;;3.46;68.45;99860.44;5068346;28;20476;-61
2021/04/07 07:07:39;;;;;;;15.90;11.10;;;;;;;3.22;68.73;99855.88;5069290;28;20558;-62
2021/04/07 07:10:06;;;;;;;19.60;13.43;;;;;;;3.30;69.15;99861.50;5057541;28;20490;-62
2021/04/07 07:12:33;;;;;;;17.20;12.23;;;;;;;3.04;70.13;99862.38;5088079;28;20448;-60
2021/04/07 07:15:02;;;;;;;23.47;14.73;;;;;;;3.65;68.15;99867.97;5078937;28;20570;-61
2021/04/07 07:17:29;;;;;;;22.17;14.40;;;;;;;3.83;67.53;99855.25;5078081;28;21066;-63
2021/04/07 07:19:55;;;;;;;21.10;12.83;;;;;;;3.68;67.85;99867.72;5079321;28;20491;-62
2021/04/07 07:22:24;;;;;;;19.17;13.53;;;;;;;3.30;69.54;99857.97;5079155;28;20472;-65
2021/04/07 07:24:55;;;;;;;20.17;14.87;;;;;;;3.05;71.06;99864.91;5079304;28;20443;-66
2021/04/07 07:27:35;;;;;;;23.07;13.53;;;;;;;2.92;69.91;99864.91;5074528;28;20491;-64
2021/04/07 07:30:01;;;;;;;30.60;16.50;;;;;;;3.06;70.39;99863.97;5079887;28;20448;-63
2021/04/07 07:32:36;;;;;;;19.75;12.50;;;;;;;3.04;70.42;99868.53;5079891;28;20476;-63
2021/04/07 07:35:11;;;;;;;16.57;12.90;;;;;;;3.35;70.09;99877.88;5091826;28;20263;-63
2021/04/07 07:37:38;;;;;;;22.05;15.43;;;;;;;3.26;70.03;99861.78;5093805;28;20960;-63
2021/04/07 07:40:09;;;;;;;23.30;15.57;;;;;;;3.45;69.51;99862.22;5077648;28;20269;-63
2021/04/07 07:42:35;;;;;;;25.70;18.33;;;;;;;3.48;69.04;99861.19;5077571;28;20466;-62
2021/04/07 07:45:01;;;;;;;28.55;18.52;;;;;;;3.66;68.75;99872.28;5082397;28;20448;-63
2021/04/07 07:47:30;;;;;;;31.20;19.60;;;;;;;3.30;69.02;99864.13;5081686;28;20248;-62
2021/04/07 07:49:58;;;;;;;27.53;18.13;;;;;;;3.19;70.00;99867.50;5083122;28;20253;-63
2021/04/07 07:52:29;;;;;;;27.90;18.37;;;;;;;3.04;70.01;99873.81;5082877;28;20475;-62
2021/04/07 07:54:55;;;;;;;28.77;18.73;;;;;;;3.34;69.97;99881.47;5082824;28;20470;-62
2021/04/07 07:57:22;;;;;;;30.33;21.03;;;;;;;3.39;69.60;99879.34;5096596;28;20470;-62
2021/04/07 07:59:49;;;;;;;32.17;21.77;;;;;;;3.19;70.27;99882.47;5103895;28;20562;-62
2021/04/07 08:02:16;;;;;;;31.23;21.27;;;;;;;3.38;69.36;99875.00;5082377;28;20471;-60
2021/04/07 08:04:45;;;;;;;31.40;21.87;;;;;;;3.53;68.95;99885.50;5082748;28;20454;-61
2021/04/07 08:07:14;;;;;;;33.27;23.53;;;;;;;3.25;70.13;99873.31;5081904;28;20475;-63
2021/04/07 08:09:40;;;;;;;32.10;19.10;;;;;;;3.25;69.94;99876.81;5081223;28;20502;-63
2021/04/07 08:12:09;;;;;;;32.70;22.07;;;;;;;3.56;68.91;99886.13;5082481;28;20483;-61
2021/04/07 08:14:37;;;;;;;29.80;19.03;;;;;;;3.30;70.10;99879.97;5082903;28;20437;-63
2021/04/07 08:17:04;;;;;;;33.10;20.47;;;;;;;3.61;69.31;99877.03;5081060;28;20475;-61
2021/04/07 08:19:32;;;;;;;28.40;18.13;;;;;;;3.53;69.27;99880.22;5101623;28;20486;-61
2021/04/07 08:21:58;;;;;;;31.27;19.50;;;;;;;3.88;68.78;99876.94;5102722;28;20318;-61
2021/04/07 08:24:26;;;;;;;27.97;20.20;;;;;;;3.71;68.70;99884.22;5088583;28;21002;-61
2021/04/07 08:26:52;;;;;;;28.80;19.70;;;;;;;4.10;67.65;99869.19;5082214;28;20578;-62
2021/04/07 08:29:19;;;;;;;35.07;21.33;;;;;;;4.32;67.38;99879.09;5081714;28;20458;-62
2021/04/07 08:31:49;;;;;;;31.50;18.90;;;;;;;3.90;67.38;99883.78;5091927;28;20475;-63
2021/04/07 08:34:16;;;;;;;29.43;20.30;;;;;;;4.20;67.53;99882.63;5086111;28;20490;-63
2021/04/07 08:36:43;;;;;;;31.10;21.17;;;;;;;4.01;67.60;99887.50;5067029;28;20484;-64
2021/04/07 08:39:11;;;;;;;32.73;20.53;;;;;;;4.26;67.20;99882.16;5085828;28;20577;-63
2021/04/07 08:41:38;;;;;;;27.90;19.97;;;;;;;4.01;68.28;99893.66;5083841;28;20480;-63
2021/04/07 08:44:05;;;;;;;28.73;20.67;;;;;;;4.42;66.71;99887.19;5080861;28;20451;-62
2021/04/07 08:46:40;;;;;;;26.23;19.93;;;;;;;4.17;67.32;99890.78;5080516;28;20482;-62
2021/04/07 08:49:08;;;;;;;24.77;16.87;;;;;;;4.28;67.43;99890.00;5081130;28;20501;-63
2021/04/07 08:51:35;;;;;;;25.83;17.93;;;;;;;4.38;66.72;99892.84;5071242;28;20468;-63
2021/04/07 08:54:02;;;;;;;24.40;17.17;;;;;;;4.51;66.20;99888.34;5079537;28;20444;-65
2021/04/07 08:56:34;;;;;;;22.50;15.93;;;;;;;4.26;66.70;99895.41;5078116;28;20815;-65
2021/04/07 08:59:01;;;;;;;22.60;16.70;;;;;;;4.51;66.23;99894.50;5065801;28;20480;-63
2021/04/07 09:01:33;;;;;;;23.27;16.17;;;;;;;4.78;65.07;99898.75;5076338;28;20507;-63
2021/04/07 09:04:10;;;;;;;22.70;15.83;;;;;;;4.89;65.24;99900.59;5080115;28;20440;-65
2021/04/07 09:06:37;;;;;;;24.30;17.40;;;;;;;5.37;64.12;99897.06;5082436;28;20732;-64
2021/04/07 09:09:05;;;;;;;19.97;13.53;;;;;;;4.71;65.25;99900.97;5080133;28;20448;-61
2021/04/07 09:11:33;;;;;;;20.00;15.63;;;;;;;5.02;65.17;99900.56;5077232;28;20896;-64
2021/04/07 09:14:04;;;;;;;19.53;13.83;;;;;;;5.82;63.64;99900.66;5068940;28;20454;-63
2021/04/07 09:16:32;;;;;;;15.10;12.67;;;;;;;4.79;65.07;99894.28;5073142;28;20495;-63
2021/04/07 09:19:16;;;;;;;16.30;13.50;;;;;;;5.30;64.28;99893.19;5075729;28;21090;-63
2021/04/07 09:21:53;;;;;;;15.43;13.33;;;;;;;5.11;65.13;99909.63;5077434;28;20537;-63
2021/04/07 09:24:20;;;;;;;15.93;13.00;;;;;;;5.55;64.07;99914.22;5070284;28;20452;-62
2021/04/07 09:26:48;;;;;;;17.00;13.17;;;;;;;5.60;63.02;99912.06;5060136;28;20552;-60
2021/04/07 09:29:15;;;;;;;15.70;12.10;;;;;;;5.38;63.97;99901.38;5077529;28;20489;-63
2021/04/07 09:31:41;;;;;;;14.37;11.37;;;;;;;5.36;64.62;99903.31;5064797;28;20468;-64
2021/04/07 09:34:11;;;;;;;14.67;10.97;;;;;;;4.99;65.27;99909.56;5088757;28;20491;-61
2021/04/07 09:36:40;;;;;;;16.03;11.83;;;;;;;5.79;63.43;99919.44;5079133;28;20472;-61
2021/04/07 09:39:08;;;;;;;13.07;11.53;;;;;;;4.95;65.85;99917.84;5079353;28;20495;-63
2021/04/07 09:41:36;;;;;;;15.53;10.50;;;;;;;5.13;65.53;99916.47;5067700;28;20859;-63
2021/04/07 09:44:04;;;;;;;15.10;11.33;;;;;;;5.30;66.34;99919.69;5080655;28;20531;-65
2021/04/07 09:46:31;;;;;;;14.53;11.37;;;;;;;5.37;65.32;99916.47;5078957;28;20472;-63
2021/04/07 09:48:58;;;;;;;12.87;11.10;;;;;;;4.95;65.91;99921.34;5080230;28;20452;-62
2021/04/07 09:51:30;;;;;;;16.43;11.70;;;;;;;5.49;64.91;99916.50;5079666;28;20501;-62
2021/04/07 09:54:09;;;;;;;11.60;9.07;;;;;;;5.37;64.98;99912.97;5075766;28;20443;-62
2021/04/07 09:56:45;;;;;;;16.00;10.10;;;;;;;5.85;63.29;99923.47;5079927;28;20479;-62
2021/04/07 09:59:12;;;;;;;14.33;10.67;;;;;;;5.32;65.14;99923.06;5079811;28;20556;-62
2021/04/07 10:01:39;;;;;;;12.07;10.30;;;;;;;5.17;64.92;99922.41;5078976;28;20464;-62
2021/04/07 10:04:06;;;;;;;13.30;10.77;;;;;;;5.60;64.73;99929.78;5072463;28;20449;-62
2021/04/07 10:06:32;;;;;;;11.63;9.20;;;;;;;6.36;62.27;99927.50;5078291;28;20546;-62
2021/04/07 10:09:03;;;;;;;9.73;7.83;;;;;;;5.69;64.45;99928.22;5063202;28;20456;-62
2021/04/07 10:11:31;;;;;;;9.30;8.03;;;;;;;5.97;63.89;99937.59;5079038;28;20742;-60
2021/04/07 10:13:59;;;;;;;9.70;7.87;;;;;;;6.55;61.94;99934.84;5076250;28;20707;-61
2021/04/07 10:16:26;;;;;;;9.60;8.20;;;;;;;6.68;61.89;99942.66;5073942;28;20468;-61
2021/04/07 10:18:52;;;;;;;10.10;9.10;;;;;;;6.53;60.68;99942.09;5076230;28;20472;-63
2021/04/07 10:21:20;;;;;;;9.67;6.73;;;;;;;5.96;63.98;99942.06;5085496;28;21058;-62
2021/04/07 10:23:47;;;;;;;7.60;6.90;;;;;;;6.08;64.16;99945.59;5066855;28;20439;-63
2021/04/07 10:26:15;;;;;;;7.90;6.60;;;;;;;5.34;64.80;99945.00;5079028;28;20521;-62
2021/04/07 10:28:42;;;;;;;8.60;7.23;;;;;;;5.68;65.30;99951.28;5079990;28;20459;-62
2021/04/07 10:31:11;;;;;;;8.33;7.17;;;;;;;6.27;63.85;99949.44;5077977;28;20531;-61
2021/04/07 10:33:38;;;;;;;8.40;7.50;;;;;;;6.62;62.38;99951.97;5079508;28;20468;-62
2021/04/07 10:36:06;;;;;;;7.33;6.00;;;;;;;6.90;62.00;99952.41;5077541;28;20475;-61
2021/04/07 10:38:33;;;;;;;7.77;5.50;;;;;;;6.19;63.52;99952.69;5076875;28;20506;-63
2021/04/07 10:41:01;;;;;;;6.00;4.73;;;;;;;6.68;63.13;99945.31;5079085;28;20468;-63
2021/04/07 10:43:33;;;;;;;5.20;4.43;;;;;;;6.96;61.14;99944.78;5079318;28;20447;-62
2021/04/07 10:46:02;;;;;;;4.50;4.10;;;;;;;9.20;55.82;99946.94;5078374;28;21052;-61
2021/04/07 10:48:29;;;;;;;4.57;4.03;;;;;;;9.72;53.22;99941.31;5088688;28;20523;-61
2021/04/07 10:50:57;;;;;;;4.60;4.03;;;;;;;10.30;51.42;99946.53;5088939;28;20500;-61
2021/04/07 10:53:32;;;;;;;5.17;3.37;;;;;;;10.09;51.06;99954.75;5080206;28;21005;-62
2021/04/07 10:55:59;;;;;;;3.73;3.33;;;;;;;9.55;51.98;99945.59;5071417;28;20497;-62
2021/04/07 10:58:27;;;;;;;5.37;3.30;;;;;;;10.28;51.29;99950.34;5070232;28;20456;-61
2021/04/07 11:00:54;;;;;;;5.00;3.67;;;;;;;10.41;50.57;99958.88;5062884;28;20473;-61
2021/04/07 11:03:32;;;;;;;6.40;3.97;;;;;;;11.61;48.65;99951.66;5075992;28;20486;-62
2021/04/07 11:05:58;;;;;;;3.90;3.40;;;;;;;12.13;47.13;99941.00;5058572;28;20490;-61
2021/04/07 11:08:35;;;;;;;5.13;3.27;;;;;;;10.89;47.58;99951.63;5070171;28;20443;-61
2021/04/07 11:11:02;;;;;;;5.40;3.30;;;;;;;10.17;50.34;99949.53;5062338;28;20476;-62
2021/04/07 11:13:29;;;;;;;4.43;3.83;;;;;;;10.14;50.35;99946.31;5076370;28;20527;-61
2021/04/07 11:16:07;;;;;;;4.70;3.80;;;;;;;8.80;54.27;99943.41;5078172;28;20472;-61
2021/04/07 11:18:34;;;;;;;4.53;3.53;;;;;;;9.18;53.38;99946.25;5082789;28;20462;-60
2021/04/07 11:21:01;;;;;;;5.63;3.70;;;;;;;9.45;53.41;99952.75;5089813;28;20474;-61
2021/04/07 11:23:28;;;;;;;4.83;3.83;;;;;;;8.87;54.88;99954.38;5079887;28;20576;-61
2021/04/07 11:25:55;;;;;;;5.40;4.30;;;;;;;8.70;55.09;99955.00;5062249;28;20468;-61
2021/04/07 11:28:22;;;;;;;7.93;4.43;;;;;;;8.91;55.50;99945.09;5084541;28;20533;-62
2021/04/07 11:30:58;;;;;;;5.20;4.30;;;;;;;8.91;55.92;99946.94;5075839;28;20475;-64
2021/04/07 11:33:28;;;;;;;8.77;4.70;;;;;;;8.45;57.88;99965.16;5076537;28;20951;-59
2021/04/07 11:36:01;;;;;;;7.60;4.33;;;;;;;8.55;58.28;99952.72;5072969;28;20467;-60
2021/04/07 11:38:29;;;;;;;8.70;4.80;;;;;;;8.37;59.58;99960.47;5091546;28;20551;-59